KJXN/JXN METAR and TAF weather

Enter ICAO airport designator
Station Type Date Time Source
KJXN METAR 2022/12/04 10:56 UTC NOAA

KJXN 041056Z AUTO 21006KT 10SM CLR M07/M10 A3025 RMK AO2 SLP258 T10721100 $


Station Type Date Time Source
KJXN Decoded METAR 2022/12/04 10:56 UTC NOAA

JACKSON COUNTY-REYNOLDS, MI, United States (KJXN) 42-16N 084-28W
Dec 04, 2022 - 05:56 AM EST / 2022.12.04 1056 UTC
Wind: from the SSW (210 degrees) at 7 MPH (6 KT):0
Visibility: 10 mile(s):0
Sky conditions: clear
Temperature: 19.0 F (-7.2 C)
Windchill: 10 F (-12 C):1
Dew Point: 14.0 F (-10.0 C)
Relative Humidity: 80%
Pressure (altimeter): 30.25 in. Hg (1024 hPa)
ob: KJXN 041056Z AUTO 21006KT 10SM CLR M07/M10 A3025 RMK AO2 SLP258 T10721100
cycle: 11

Station Type Date Time Source
KJXN TAF 2022/12/04 06:42 UTC NOAA

TAF KJXN 040540Z 0406/0506 21004KT P6SM SKC
FM041500 25012G18KT P6SM SKC
FM050000 21008KT P6SM SKC

Example: see airport list